Time;durP1;ratioP1;P1;durP2;ratioP2;P2;SDS_P1;SDS_P2;PMS_P1;PMS_P2;Temp;Humidity;BMP_temperature;BMP_pressure;BME280_temperature;BME280_humidity;BME280_pressure;Samples;Min_cycle;Max_cycle;Signal;HPM_P1;HPM_P2
2022/11/07 00:02:24;;;;;;;4.65;3.15;;;9.90;99.90;;;;;;5108315;28;20027;-75
2022/11/07 00:04:50;;;;;;;4.82;2.95;;;9.90;99.90;;;;;;5087243;28;20115;-77
2022/11/07 00:07:16;;;;;;;4.72;3.10;;;9.90;99.90;;;;;;5106394;28;20038;-75
2022/11/07 00:09:42;;;;;;;4.43;2.60;;;9.90;99.90;;;;;;5085531;28;20105;-75
2022/11/07 00:12:08;;;;;;;4.20;3.00;;;9.90;99.90;;;;;;5092412;28;20106;-75
2022/11/07 00:14:34;;;;;;;7.63;3.30;;;10.00;99.90;;;;;;5104590;28;20055;-75
2022/11/07 00:16:59;;;;;;;4.53;3.05;;;10.00;99.90;;;;;;5109735;28;20514;-75
2022/11/07 00:19:25;;;;;;;3.75;2.97;;;10.00;99.90;;;;;;5101594;28;20107;-74
2022/11/07 00:21:51;;;;;;;5.68;3.17;;;10.00;99.90;;;;;;5089645;28;20114;-76
2022/11/07 00:24:17;;;;;;;6.80;3.35;;;10.00;99.90;;;;;;5083991;28;20388;-75
2022/11/07 00:26:43;;;;;;;4.93;3.50;;;10.00;99.90;;;;;;5108459;28;20027;-75
2022/11/07 00:29:14;;;;;;;5.30;2.95;;;10.10;99.90;;;;;;5088009;28;20038;-76
2022/11/07 00:31:40;;;;;;;5.97;3.57;;;10.10;99.90;;;;;;5072903;28;20028;-75
2022/11/07 00:34:07;;;;;;;6.65;4.03;;;10.10;99.90;;;;;;5085070;28;20031;-74
2022/11/07 00:36:33;;;;;;;5.97;3.53;;;10.20;99.90;;;;;;5085777;28;20455;-75
2022/11/07 00:38:59;;;;;;;5.65;3.67;;;10.20;99.90;;;;;;5105438;28;20095;-75
2022/11/07 00:41:25;;;;;;;5.97;3.95;;;10.20;99.90;;;;;;5087780;28;20056;-74
2022/11/07 00:43:52;;;;;;;10.00;3.42;;;10.20;99.90;;;;;;5072734;28;20023;-75
2022/11/07 00:46:19;;;;;;;6.68;3.65;;;10.20;99.90;;;;;;5088128;28;20031;-76
2022/11/07 00:48:45;;;;;;;7.78;3.80;;;10.30;99.90;;;;;;5107104;28;20396;-75
2022/11/07 00:51:15;;;;;;;8.82;3.70;;;10.30;99.90;;;;;;5102879;28;20027;-76
2022/11/07 00:53:41;;;;;;;6.72;3.38;;;10.30;99.90;;;;;;5091771;28;20120;-75
2022/11/07 00:56:10;;;;;;;5.63;3.55;;;10.30;99.90;;;;;;5088664;28;20031;-75
2022/11/07 00:58:36;;;;;;;9.80;3.85;;;10.30;99.90;;;;;;5087813;28;20026;-75
2022/11/07 01:01:10;;;;;;;5.72;3.10;;;10.30;99.90;;;;;;5105276;28;20023;-76
2022/11/07 01:06:21;;;;;;;5.93;3.75;;;10.40;99.90;;;;;;5087907;28;20034;-75
2022/11/07 01:08:47;;;;;;;6.82;3.05;;;10.40;99.90;;;;;;5088462;28;20069;-76
2022/11/07 01:11:13;;;;;;;5.50;3.30;;;10.40;99.90;;;;;;5103648;28;20035;-76
2022/11/07 01:13:38;;;;;;;5.20;3.25;;;10.40;99.90;;;;;;5105850;28;20042;-75
2022/11/07 01:16:07;;;;;;;9.50;3.38;;;10.40;99.90;;;;;;5070493;28;20106;-76
2022/11/07 01:18:33;;;;;;;9.65;3.35;;;10.40;99.90;;;;;;5103270;28;20030;-76
2022/11/07 01:21:03;;;;;;;6.47;3.05;;;10.40;99.90;;;;;;5104195;28;20993;-75
2022/11/07 01:23:29;;;;;;;9.93;3.63;;;10.40;99.90;;;;;;5104934;28;20042;-75
2022/11/07 01:25:55;;;;;;;7.13;3.70;;;10.40;99.90;;;;;;5089931;28;20499;-75
2022/11/07 01:28:20;;;;;;;6.05;3.20;;;10.50;99.90;;;;;;5072078;28;21126;-75
2022/11/07 01:30:46;;;;;;;5.53;2.92;;;10.50;99.90;;;;;;5087318;28;20558;-75
2022/11/07 01:33:12;;;;;;;5.43;2.60;;;10.50;99.90;;;;;;5089153;28;20038;-75
2022/11/07 01:35:38;;;;;;;5.50;2.75;;;10.50;99.90;;;;;;5071823;28;20038;-75
2022/11/07 01:38:04;;;;;;;4.68;2.92;;;10.50;99.90;;;;;;5103940;28;20023;-74
2022/11/07 01:41:19;;;;;;;6.15;3.25;;;10.50;99.90;;;;;;5095878;28;21401;-74
2022/11/07 01:43:16;;;;;;;6.75;3.13;;;10.50;99.90;;;;;;5084025;28;20491;-75
2022/11/07 01:45:42;;;;;;;5.55;3.03;;;10.50;99.90;;;;;;5103181;28;20037;-75
2022/11/07 01:48:08;;;;;;;5.78;3.15;;;10.50;99.90;;;;;;5091864;28;20034;-74
2022/11/07 01:50:34;;;;;;;3.80;2.83;;;10.50;99.90;;;;;;5104458;28;20024;-74
2022/11/07 01:53:00;;;;;;;4.63;3.25;;;10.50;99.90;;;;;;5091272;28;20184;-75
2022/11/07 01:55:30;;;;;;;7.22;3.60;;;10.50;99.90;;;;;;5090877;28;20030;-75
2022/11/07 01:58:00;;;;;;;4.67;3.30;;;10.50;99.90;;;;;;5093335;28;20067;-75
2022/11/07 02:00:26;;;;;;;6.45;3.50;;;10.50;99.90;;;;;;5106797;28;20127;-75
2022/11/07 02:02:58;;;;;;;4.88;3.22;;;10.50;99.90;;;;;;5090481;28;20024;-75
2022/11/07 02:05:37;;;;;;;11.75;3.50;;;10.50;99.90;;;;;;5106590;28;20035;-75
2022/11/07 02:08:06;;;;;;;4.97;2.90;;;10.50;99.90;;;;;;5091972;28;20034;-74
2022/11/07 02:10:34;;;;;;;4.95;3.35;;;10.50;99.90;;;;;;5109851;28;20059;-75
2022/11/07 02:13:01;;;;;;;5.63;3.13;;;10.50;99.90;;;;;;5105344;28;20036;-75
2022/11/07 02:15:27;;;;;;;6.70;3.53;;;10.50;99.90;;;;;;5110781;28;20118;-74
2022/11/07 02:17:54;;;;;;;5.65;3.00;;;10.60;99.90;;;;;;5092001;28;20099;-74
2022/11/07 02:20:20;;;;;;;5.43;2.70;;;10.60;99.90;;;;;;5091507;28;20035;-74
2022/11/07 02:22:48;;;;;;;8.57;3.00;;;10.60;99.90;;;;;;5107082;28;20020;-74
2022/11/07 02:25:17;;;;;;;4.93;2.97;;;10.60;99.90;;;;;;5089700;28;20077;-74
2022/11/07 02:27:46;;;;;;;7.95;3.38;;;10.70;99.90;;;;;;5098529;28;20079;-75
2022/11/07 02:30:14;;;;;;;7.05;3.67;;;10.70;99.90;;;;;;5074051;28;20069;-74
2022/11/07 02:32:40;;;;;;;4.65;3.03;;;10.70;99.90;;;;;;5089393;28;20027;-74
2022/11/07 02:35:41;;;;;;;4.63;2.95;;;10.70;99.90;;;;;;5108799;28;20036;-75
2022/11/07 02:38:12;;;;;;;5.78;2.80;;;10.70;99.90;;;;;;5090327;28;20515;-74
2022/11/07 02:40:39;;;;;;;6.10;3.28;;;10.70;99.90;;;;;;5091925;28;20031;-76
2022/11/07 02:43:08;;;;;;;4.60;2.72;;;10.80;99.90;;;;;;5104956;28;20020;-75
2022/11/07 02:45:36;;;;;;;6.97;2.67;;;10.80;99.90;;;;;;5107205;28;20032;-76
2022/11/07 02:48:02;;;;;;;5.15;2.97;;;10.80;99.90;;;;;;5092314;28;20669;-75
2022/11/07 02:50:28;;;;;;;6.70;3.20;;;10.90;99.90;;;;;;5087412;28;20031;-75
2022/11/07 02:52:53;;;;;;;6.57;2.72;;;10.80;99.90;;;;;;5090042;28;20032;-75
2022/11/07 02:55:19;;;;;;;7.97;2.92;;;10.90;99.90;;;;;;5090961;28;20024;-76
2022/11/07 02:57:45;;;;;;;5.43;3.10;;;10.90;99.90;;;;;;5107325;28;20461;-75
2022/11/07 03:00:13;;;;;;;5.97;3.45;;;10.90;99.90;;;;;;5088768;28;20031;-77
2022/11/07 03:02:45;;;;;;;5.38;2.58;;;10.90;99.90;;;;;;5087372;28;20402;-75
2022/11/07 03:05:12;;;;;;;5.45;2.88;;;10.90;99.90;;;;;;5088695;28;20396;-76
2022/11/07 03:07:38;;;;;;;7.57;3.08;;;10.90;99.90;;;;;;5086603;28;20398;-75
2022/11/07 03:10:04;;;;;;;5.53;2.75;;;10.90;99.90;;;;;;5102878;28;20028;-75
2022/11/07 03:12:30;;;;;;;6.82;2.78;;;10.90;99.90;;;;;;5108370;28;20065;-75
2022/11/07 03:14:55;;;;;;;9.13;3.22;;;11.00;99.90;;;;;;5071149;28;20027;-75
2022/11/07 03:17:21;;;;;;;10.00;2.97;;;11.00;99.90;;;;;;5109970;28;20059;-75
2022/11/07 03:19:46;;;;;;;7.68;3.08;;;11.00;99.90;;;;;;5092090;28;20038;-75
2022/11/07 03:22:12;;;;;;;5.40;2.67;;;11.00;99.90;;;;;;5069692;28;20474;-75
2022/11/07 03:24:38;;;;;;;9.85;2.88;;;11.00;99.90;;;;;;5108703;28;20693;-75
2022/11/07 03:27:03;;;;;;;8.60;2.67;;;11.00;99.90;;;;;;5107986;28;20031;-75
2022/11/07 03:29:29;;;;;;;6.40;3.03;;;11.00;99.90;;;;;;5087518;28;20495;-75
2022/11/07 03:31:56;;;;;;;8.45;3.63;;;11.00;99.90;;;;;;5102277;28;20059;-75
2022/11/07 03:34:22;;;;;;;6.78;3.05;;;11.00;99.90;;;;;;5087252;28;20415;-74
2022/11/07 03:36:47;;;;;;;6.45;3.15;;;11.10;99.90;;;;;;5107816;28;20019;-75
2022/11/07 03:39:13;;;;;;;6.60;3.80;;;11.10;99.90;;;;;;5082028;28;20028;-74
2022/11/07 03:41:39;;;;;;;8.15;3.78;;;11.10;99.90;;;;;;5089197;28;20023;-76
2022/11/07 03:44:04;;;;;;;7.20;3.22;;;11.10;99.90;;;;;;5086708;28;20031;-75
2022/11/07 03:46:30;;;;;;;6.68;3.15;;;11.10;99.90;;;;;;5091224;28;20038;-74
2022/11/07 03:48:56;;;;;;;6.15;3.10;;;11.10;99.90;;;;;;5109216;28;20121;-74
2022/11/07 03:51:22;;;;;;;9.02;3.40;;;11.10;99.90;;;;;;5101442;28;20028;-74
2022/11/07 03:53:47;;;;;;;6.63;3.20;;;11.20;99.90;;;;;;5090816;28;20036;-75
2022/11/07 03:56:13;;;;;;;6.85;3.20;;;11.10;99.90;;;;;;5095583;28;20035;-75
2022/11/07 03:58:39;;;;;;;5.80;2.88;;;11.10;99.90;;;;;;5072520;28;20377;-75
2022/11/07 04:01:04;;;;;;;7.10;3.35;;;11.20;99.90;;;;;;5106098;28;20055;-75
2022/11/07 04:03:31;;;;;;;6.90;2.97;;;11.20;99.90;;;;;;5106474;28;20115;-75
2022/11/07 04:05:57;;;;;;;8.75;3.17;;;11.20;99.90;;;;;;5084714;28;20896;-75
2022/11/07 04:08:23;;;;;;;7.13;3.10;;;11.20;99.90;;;;;;5102804;28;20023;-75
2022/11/07 04:10:49;;;;;;;6.72;3.22;;;11.20;99.90;;;;;;5109258;28;20020;-75
2022/11/07 04:18:44;;;;;;;6.05;2.85;;;11.20;99.90;;;;;;5106383;28;20027;-75
2022/11/07 04:21:10;;;;;;;6.03;2.78;;;11.20;99.90;;;;;;5089923;28;20024;-75
2022/11/07 04:23:36;;;;;;;6.82;2.53;;;11.20;99.90;;;;;;5108592;28;20027;-75
2022/11/07 04:28:46;;;;;;;5.05;2.70;;;11.20;99.90;;;;;;5105604;28;20042;-75
2022/11/07 04:31:11;;;;;;;5.70;3.05;;;11.20;99.90;;;;;;5106358;28;20114;-75
2022/11/07 04:33:37;;;;;;;9.07;3.13;;;11.30;99.90;;;;;;5072489;28;20036;-76
2022/11/07 04:36:03;;;;;;;9.02;3.10;;;11.30;99.90;;;;;;5102304;28;20044;-76
2022/11/07 04:38:29;;;;;;;7.25;3.00;;;11.20;99.90;;;;;;5104786;28;20031;-75
2022/11/07 04:40:55;;;;;;;7.20;2.80;;;11.20;99.90;;;;;;5103916;28;20532;-75
2022/11/07 04:43:23;;;;;;;7.60;2.60;;;11.20;99.90;;;;;;5089877;28;20019;-75
2022/11/07 04:45:48;;;;;;;18.20;3.80;;;11.20;99.90;;;;;;5088811;28;20015;-75
2022/11/07 04:48:14;;;;;;;6.43;3.00;;;11.20;99.90;;;;;;5106808;28;20019;-75
2022/11/07 04:50:41;;;;;;;8.75;2.50;;;11.10;99.90;;;;;;5106333;28;20027;-75
2022/11/07 04:53:13;;;;;;;6.20;2.85;;;11.10;99.90;;;;;;5106538;28;20517;-75
2022/11/07 04:55:39;;;;;;;9.50;3.17;;;11.10;99.90;;;;;;5103569;28;20036;-75
2022/11/07 04:58:06;;;;;;;6.45;2.88;;;11.10;99.90;;;;;;5089234;28;20028;-75
2022/11/07 05:00:31;;;;;;;5.78;2.90;;;11.10;99.90;;;;;;5066850;28;20110;-75
2022/11/07 05:02:57;;;;;;;7.28;2.85;;;11.10;99.90;;;;;;5088083;28;20114;-76
2022/11/07 05:05:24;;;;;;;7.00;2.90;;;11.10;99.90;;;;;;5101759;28;20024;-75
2022/11/07 05:07:49;;;;;;;6.03;3.05;;;11.10;99.90;;;;;;5101111;28;20084;-75
2022/11/07 05:10:21;;;;;;;7.68;3.20;;;11.10;99.90;;;;;;5102683;28;20053;-75
2022/11/07 05:12:47;;;;;;;5.68;3.05;;;11.20;99.90;;;;;;5086780;28;20026;-75
2022/11/07 05:15:13;;;;;;;7.28;2.95;;;11.20;99.90;;;;;;5102463;28;20058;-75
2022/11/07 05:17:39;;;;;;;6.82;3.13;;;11.20;99.90;;;;;;5102792;28;20104;-75
2022/11/07 05:20:05;;;;;;;7.20;3.28;;;11.20;99.90;;;;;;5103954;28;20103;-75
2022/11/07 05:25:23;;;;;;;9.00;3.65;;;11.20;99.90;;;;;;5081053;28;20036;-79
2022/11/07 05:27:54;;;;;;;6.03;2.88;;;11.20;99.90;;;;;;5083673;28;20705;-75
2022/11/07 05:30:19;;;;;;;9.90;3.50;;;11.20;99.90;;;;;;5101958;28;20089;-75
2022/11/07 05:32:45;;;;;;;4.97;2.72;;;11.20;99.90;;;;;;5088949;28;20031;-75
2022/11/07 05:35:11;;;;;;;8.48;3.45;;;11.20;99.90;;;;;;5072976;28;20027;-75
2022/11/07 05:37:36;;;;;;;6.88;2.72;;;11.20;99.90;;;;;;5101305;28;20075;-75
2022/11/07 05:40:03;;;;;;;11.93;3.00;;;11.10;99.90;;;;;;5073281;28;20028;-75
2022/11/07 05:42:28;;;;;;;7.63;3.10;;;11.10;99.90;;;;;;5086836;28;20027;-75
2022/11/07 05:44:54;;;;;;;6.55;2.97;;;11.00;99.90;;;;;;5086196;28;20027;-75
2022/11/07 05:47:20;;;;;;;10.70;3.53;;;11.00;99.90;;;;;;5098854;28;20032;-75
2022/11/07 05:49:45;;;;;;;9.93;3.50;;;11.00;99.90;;;;;;5084127;28;20035;-75
2022/11/07 05:52:11;;;;;;;8.90;3.00;;;11.00;99.90;;;;;;5104425;28;20038;-76
2022/11/07 05:54:37;;;;;;;7.70;3.10;;;10.90;99.90;;;;;;5068876;28;20073;-76
2022/11/07 05:57:02;;;;;;;9.43;2.90;;;10.90;99.90;;;;;;5086921;28;20024;-76
2022/11/07 05:59:28;;;;;;;6.05;2.80;;;10.90;99.90;;;;;;5074667;28;20028;-75
2022/11/07 06:01:54;;;;;;;7.82;3.38;;;10.90;99.90;;;;;;5106232;28;20023;-75
2022/11/07 06:04:19;;;;;;;11.02;3.08;;;10.90;99.90;;;;;;5123735;28;20015;-75
2022/11/07 06:06:45;;;;;;;8.55;3.00;;;10.90;99.90;;;;;;5092479;28;20062;-75
2022/11/07 06:09:11;;;;;;;9.30;3.30;;;10.90;99.90;;;;;;5104277;28;20066;-74
2022/11/07 06:11:37;;;;;;;8.50;3.55;;;10.90;99.90;;;;;;5081945;28;20495;-75
2022/11/07 06:14:02;;;;;;;8.88;3.10;;;10.90;99.90;;;;;;5106035;28;20039;-74
2022/11/07 06:16:29;;;;;;;6.03;3.20;;;10.90;99.90;;;;;;5080838;28;20035;-74
2022/11/07 06:18:55;;;;;;;8.52;3.53;;;10.90;99.90;;;;;;5100639;28;20099;-75
2022/11/07 06:21:21;;;;;;;12.18;3.42;;;10.90;99.90;;;;;;5084890;28;20694;-74
2022/11/07 06:23:47;;;;;;;10.52;3.85;;;10.90;99.90;;;;;;5082387;28;20028;-74
2022/11/07 06:26:13;;;;;;;12.02;3.85;;;10.90;99.90;;;;;;5094978;28;20039;-73
2022/11/07 06:28:38;;;;;;;7.22;3.55;;;10.90;99.90;;;;;;5098390;28;20115;-74
2022/11/07 06:31:05;;;;;;;9.55;3.65;;;10.90;99.90;;;;;;5080643;28;20064;-76
2022/11/07 06:33:31;;;;;;;9.35;3.25;;;10.80;99.90;;;;;;5079667;28;20091;-75
2022/11/07 06:36:05;;;;;;;10.48;3.60;;;10.90;99.90;;;;;;5063907;28;20048;-75
2022/11/07 06:38:30;;;;;;;13.27;3.45;;;10.80;99.90;;;;;;5102353;28;20028;-74
2022/11/07 06:41:06;;;;;;;9.18;3.58;;;10.80;99.90;;;;;;5102671;28;20229;-75
2022/11/07 06:43:33;;;;;;;11.05;3.45;;;10.90;99.90;;;;;;5101556;28;20487;-75
2022/11/07 06:46:05;;;;;;;10.05;3.65;;;10.90;99.90;;;;;;5078598;28;20060;-76
2022/11/07 06:48:31;;;;;;;9.23;3.25;;;10.90;99.90;;;;;;5090446;28;20032;-77
2022/11/07 06:51:01;;;;;;;11.68;3.85;;;10.90;99.90;;;;;;5105732;28;20549;-74
2022/11/07 06:53:27;;;;;;;7.20;3.25;;;10.90;99.90;;;;;;5083349;28;20031;-74
2022/11/07 06:55:58;;;;;;;7.32;3.33;;;10.90;99.90;;;;;;5087500;28;20173;-74
2022/11/07 06:58:24;;;;;;;7.50;3.42;;;10.90;99.90;;;;;;5106431;28;20023;-75
2022/11/07 07:00:50;;;;;;;12.55;4.05;;;10.90;99.90;;;;;;5084913;28;20042;-75
2022/11/07 07:03:16;;;;;;;9.48;3.75;;;10.90;99.90;;;;;;5102464;27;20518;-75
2022/11/07 07:05:42;;;;;;;8.95;3.60;;;11.10;99.90;;;;;;5088382;28;20099;-75
2022/11/07 07:08:11;;;;;;;8.70;3.22;;;11.00;99.90;;;;;;5081844;28;20027;-75
2022/11/07 07:10:41;;;;;;;9.27;3.92;;;11.10;99.90;;;;;;5085768;28;20032;-75
2022/11/07 07:13:07;;;;;;;11.27;3.53;;;11.00;99.90;;;;;;5103861;28;20032;-74
2022/11/07 07:15:32;;;;;;;13.07;3.53;;;11.00;99.90;;;;;;5102333;28;20077;-75
2022/11/07 07:18:02;;;;;;;15.55;3.72;;;11.10;99.90;;;;;;5088262;28;20537;-74
2022/11/07 07:20:29;;;;;;;12.88;3.42;;;11.10;99.90;;;;;;5088974;28;20031;-74
2022/11/07 07:22:54;;;;;;;11.90;3.72;;;11.10;99.90;;;;;;5100562;28;20055;-74
2022/11/07 07:25:20;;;;;;;10.63;3.33;;;11.10;99.90;;;;;;5103798;28;20416;-75
2022/11/07 07:27:47;;;;;;;5.63;2.83;;;11.20;99.90;;;;;;5071995;28;20024;-76
2022/11/07 07:30:13;;;;;;;13.00;3.38;;;11.20;99.90;;;;;;5099978;28;20521;-75
2022/11/07 07:32:38;;;;;;;10.57;3.55;;;11.20;99.90;;;;;;5091616;28;20040;-75
2022/11/07 07:35:05;;;;;;;10.65;3.13;;;11.20;99.90;;;;;;5104684;28;20039;-75
2022/11/07 07:37:30;;;;;;;13.18;3.30;;;11.20;99.90;;;;;;5085209;28;20664;-76
2022/11/07 07:39:58;;;;;;;11.27;3.40;;;11.20;99.90;;;;;;5067786;27;20035;-75
2022/11/07 07:42:24;;;;;;;13.52;3.40;;;11.30;99.90;;;;;;5100030;27;20066;-75
2022/11/07 07:44:50;;;;;;;12.95;3.55;;;11.30;99.90;;;;;;5099418;28;20028;-73
2022/11/07 07:47:16;;;;;;;11.57;3.85;;;11.30;99.90;;;;;;5086303;28;20042;-74
2022/11/07 07:49:41;;;;;;;13.65;3.75;;;11.30;99.90;;;;;;5084462;28;20076;-74
2022/11/07 07:52:07;;;;;;;8.63;3.42;;;11.30;99.90;;;;;;5082129;28;20059;-74
2022/11/07 07:54:33;;;;;;;14.70;3.60;;;11.30;99.90;;;;;;5089822;28;20028;-75
2022/11/07 07:57:00;;;;;;;13.98;3.97;;;11.30;99.90;;;;;;5088862;28;20035;-74
2022/11/07 07:59:26;;;;;;;16.40;4.07;;;11.40;99.90;;;;;;5089338;28;20459;-74
2022/11/07 08:01:51;;;;;;;8.88;3.30;;;11.50;99.90;;;;;;5091264;28;20096;-73
2022/11/07 08:04:17;;;;;;;8.00;2.70;;;11.50;99.90;;;;;;5091288;28;20063;-73
2022/11/07 08:06:42;;;;;;;7.50;3.25;;;11.60;99.90;;;;;;5087741;28;20028;-76
2022/11/07 08:09:08;;;;;;;7.18;2.80;;;11.60;99.90;;;;;;5106964;28;20032;-75
2022/11/07 08:11:34;;;;;;;8.27;3.03;;;11.60;99.90;;;;;;5110056;28;20099;-74
2022/11/07 08:13:59;;;;;;;9.13;3.40;;;11.70;99.90;;;;;;5111604;28;20103;-74
2022/11/07 08:16:25;;;;;;;9.82;3.08;;;11.70;99.90;;;;;;5089408;28;20038;-75
2022/11/07 08:18:51;;;;;;;12.65;3.33;;;11.70;99.90;;;;;;5073194;28;20034;-75
2022/11/07 08:21:16;;;;;;;10.82;3.60;;;11.70;99.90;;;;;;5107348;28;20031;-75
2022/11/07 08:23:42;;;;;;;11.88;3.28;;;11.80;99.90;;;;;;5107118;28;20016;-75
2022/11/07 08:26:08;;;;;;;6.07;2.53;;;11.80;99.90;;;;;;5105681;28;20034;-75
2022/11/07 08:28:34;;;;;;;7.80;2.45;;;11.90;99.90;;;;;;5107116;28;20050;-75
2022/11/07 08:31:09;;;;;;;8.77;3.00;;;11.90;99.90;;;;;;5089788;28;20548;-75
2022/11/07 08:33:35;;;;;;;9.35;2.92;;;11.90;99.90;;;;;;5101359;28;20023;-75
2022/11/07 08:36:02;;;;;;;9.75;3.35;;;11.90;99.90;;;;;;5106794;28;20063;-75
2022/11/07 08:38:30;;;;;;;9.80;2.85;;;11.90;99.90;;;;;;5069018;28;20070;-75
2022/11/07 08:40:56;;;;;;;7.70;3.28;;;11.90;99.90;;;;;;5088469;28;20142;-75
2022/11/07 08:43:22;;;;;;;8.35;4.13;;;12.00;99.90;;;;;;5088558;28;20031;-75
2022/11/07 08:45:48;;;;;;;12.00;3.28;;;12.00;99.90;;;;;;5090638;28;20019;-74
2022/11/07 08:48:15;;;;;;;11.13;3.03;;;12.00;99.90;;;;;;5090054;28;20015;-75
2022/11/07 08:50:42;;;;;;;10.55;3.47;;;12.00;99.90;;;;;;5090583;28;20023;-74
2022/11/07 08:53:08;;;;;;;8.18;3.05;;;12.00;99.90;;;;;;5091579;28;20035;-74
2022/11/07 08:55:34;;;;;;;14.20;3.60;;;12.10;99.90;;;;;;5104929;28;20092;-74
2022/11/07 08:58:06;;;;;;;17.75;4.40;;;12.10;99.90;;;;;;5105170;28;20488;-74
2022/11/07 09:00:33;;;;;;;9.70;3.45;;;12.20;99.90;;;;;;5090401;28;20031;-74
2022/11/07 09:03:07;;;;;;;8.05;3.25;;;12.20;99.90;;;;;;5086808;28;20034;-74
2022/11/07 09:05:33;;;;;;;11.20;2.75;;;12.30;99.90;;;;;;5089114;28;20081;-74
2022/11/07 09:07:59;;;;;;;13.20;3.92;;;12.30;99.90;;;;;;5088541;28;20089;-74
2022/11/07 09:10:25;;;;;;;8.68;2.80;;;12.40;99.90;;;;;;5087349;28;20032;-74
2022/11/07 09:12:51;;;;;;;9.80;3.45;;;12.40;99.90;;;;;;5104480;28;20027;-74
2022/11/07 09:15:18;;;;;;;10.55;3.53;;;12.50;99.90;;;;;;5070590;28;20032;-74
2022/11/07 09:17:45;;;;;;;11.23;3.20;;;12.50;99.90;;;;;;5104011;28;20015;-74
2022/11/07 09:20:12;;;;;;;12.82;3.75;;;12.50;99.90;;;;;;5089178;28;20106;-75
2022/11/07 09:22:38;;;;;;;7.68;2.75;;;12.70;99.90;;;;;;5106212;28;20471;-74
2022/11/07 09:25:05;;;;;;;8.20;2.60;;;12.80;99.90;;;;;;5070326;28;20032;-74
2022/11/07 09:27:30;;;;;;;10.48;3.67;;;12.80;99.90;;;;;;5087751;28;20031;-74
2022/11/07 09:29:56;;;;;;;9.60;2.92;;;12.90;99.90;;;;;;5087693;28;20399;-75
2022/11/07 09:32:22;;;;;;;6.63;2.83;;;12.90;99.90;;;;;;5090563;28;20032;-74
2022/11/07 09:34:47;;;;;;;6.45;2.97;;;12.90;99.90;;;;;;5106641;28;20106;-75
2022/11/07 09:37:13;;;;;;;9.57;2.95;;;12.90;99.90;;;;;;5103575;28;20024;-75
2022/11/07 09:39:39;;;;;;;9.13;2.90;;;12.80;99.90;;;;;;5087478;28;20103;-75
2022/11/07 09:42:10;;;;;;;10.68;3.17;;;12.90;99.90;;;;;;5071540;28;20523;-75
2022/11/07 09:44:58;;;;;;;8.35;3.13;;;12.90;99.90;;;;;;5090013;28;20020;-74
2022/11/07 09:47:44;;;;;;;8.52;3.08;;;13.00;99.90;;;;;;5105752;28;20563;-74
2022/11/07 09:50:14;;;;;;;10.52;2.92;;;13.10;99.90;;;;;;5071677;28;20498;-74
2022/11/07 09:52:48;;;;;;;12.50;3.30;;;13.10;99.90;;;;;;5104479;28;20066;-74
2022/11/07 09:55:19;;;;;;;11.13;2.90;;;13.20;99.90;;;;;;5087707;28;20031;-75
2022/11/07 09:57:46;;;;;;;;;;;13.30;99.90;;;;;;5106388;28;20024;-74
2022/11/07 10:00:20;;;;;;;8.57;2.80;;;13.40;99.90;;;;;;5104926;28;19908;-74
2022/11/07 10:02:49;;;;;;;15.48;2.90;;;13.30;99.90;;;;;;5106376;28;20026;-75
2022/11/07 10:05:23;;;;;;;11.27;3.25;;;13.30;99.90;;;;;;5106143;28;20119;-75
2022/11/07 10:08:05;;;;;;;10.32;3.00;;;13.20;99.90;;;;;;5087237;28;20015;-75
2022/11/07 10:10:58;;;;;;;8.82;2.72;;;13.30;99.90;;;;;;5088930;28;20028;-75
2022/11/07 10:13:48;;;;;;;18.65;3.50;;;13.20;99.90;;;;;;5092325;28;20028;-75
2022/11/07 10:16:46;;;;;;;13.50;3.80;;;13.30;99.90;;;;;;5110016;28;20593;-75
2022/11/07 10:19:24;;;;;;;11.32;3.50;;;13.30;99.90;;;;;;5084157;28;20413;-75
2022/11/07 10:22:04;;;;;;;9.65;2.55;;;13.40;99.90;;;;;;5109363;28;20032;-75
2022/11/07 10:24:39;;;;;;;9.63;2.90;;;13.30;99.90;;;;;;5114441;28;20023;-75
2022/11/07 10:27:10;;;;;;;12.10;3.97;;;13.40;99.90;;;;;;5093387;28;20053;-75
2022/11/07 10:29:51;;;;;;;11.00;3.63;;;13.30;99.90;;;;;;5111542;28;20078;-75
2022/11/07 10:32:25;;;;;;;11.02;3.55;;;13.30;99.90;;;;;;5110922;28;20030;-75
2022/11/07 10:35:13;;;;;;;8.77;3.60;;;13.20;99.90;;;;;;5114464;28;20025;-74
2022/11/07 10:37:39;;;;;;;12.10;3.28;;;13.20;99.90;;;;;;5084554;28;20037;-74
2022/11/07 10:40:17;;;;;;;14.02;3.47;;;13.10;99.90;;;;;;5074974;28;20023;-74
2022/11/07 10:42:43;;;;;;;14.70;3.90;;;13.20;99.90;;;;;;5090790;28;20472;-75
2022/11/07 10:45:14;;;;;;;11.00;4.20;;;13.20;99.90;;;;;;5076617;28;21002;-72
2022/11/07 10:47:40;;;;;;;12.38;3.50;;;13.30;99.90;;;;;;5106462;28;20034;-74
2022/11/07 10:50:18;;;;;;;17.90;3.72;;;13.20;99.90;;;;;;5111672;28;20035;-75
2022/11/07 10:52:52;;;;;;;11.63;2.97;;;13.30;99.90;;;;;;5074129;28;20496;-75
2022/11/07 10:55:18;;;;;;;10.20;3.63;;;13.20;99.90;;;;;;5106778;27;20157;-77
2022/11/07 10:57:49;;;;;;;10.82;3.40;;;13.30;99.90;;;;;;5107235;28;20122;-76
2022/11/07 11:00:31;;;;;;;12.85;3.50;;;13.30;99.90;;;;;;5111311;28;20020;-76
2022/11/07 11:02:57;;;;;;;10.70;3.35;;;13.30;99.90;;;;;;5109420;28;20513;-76
2022/11/07 11:05:55;;;;;;;18.30;3.97;;;13.40;99.90;;;;;;5105681;28;20111;-75
2022/11/07 11:08:30;;;;;;;9.02;3.17;;;13.40;99.90;;;;;;5071393;28;20099;-75
2022/11/07 11:10:56;;;;;;;12.43;3.17;;;13.40;99.90;;;;;;5088754;28;20062;-75
2022/11/07 11:13:27;;;;;;;14.15;3.92;;;13.40;99.90;;;;;;5089760;28;20110;-75
2022/11/07 11:15:55;;;;;;;15.48;3.15;;;13.40;99.90;;;;;;5093143;28;20015;-76
2022/11/07 11:18:22;;;;;;;8.13;2.38;;;13.40;99.90;;;;;;5091724;28;20023;-75
2022/11/07 11:21:01;;;;;;;7.50;2.97;;;13.40;99.90;;;;;;5090336;28;20028;-75
2022/11/07 11:23:36;;;;;;;8.25;2.92;;;13.50;99.90;;;;;;5090732;28;20111;-80
2022/11/07 11:26:06;;;;;;;13.45;3.72;;;13.50;99.90;;;;;;5092366;28;20100;-75
2022/11/07 11:28:38;;;;;;;11.23;3.50;;;13.50;99.90;;;;;;5093477;28;20099;-75
2022/11/07 11:31:14;;;;;;;8.40;2.70;;;13.50;99.90;;;;;;5071449;28;20039;-74
2022/11/07 11:34:03;;;;;;;11.52;2.92;;;13.40;99.90;;;;;;5091490;28;20034;-76
2022/11/07 11:36:37;;;;;;;12.77;3.08;;;13.40;99.90;;;;;;5091082;28;20039;-76
2022/11/07 11:39:09;;;;;;;11.93;3.22;;;13.40;99.90;;;;;;5088469;28;20564;-74
2022/11/07 11:41:53;;;;;;;10.02;3.17;;;13.40;99.90;;;;;;5088391;28;20394;-73
2022/11/07 11:44:29;;;;;;;13.38;3.17;;;13.40;99.90;;;;;;5105140;28;20445;-73
2022/11/07 11:47:13;;;;;;;13.55;3.08;;;13.40;99.90;;;;;;5087505;28;20058;-73
2022/11/07 11:49:56;;;;;;;12.60;3.05;;;13.40;99.90;;;;;;5108502;28;20645;-73
2022/11/07 11:52:24;;;;;;;10.07;3.70;;;13.40;99.90;;;;;;5088187;28;20031;-73
2022/11/07 11:54:52;;;;;;;11.90;3.30;;;13.40;99.90;;;;;;5089808;28;20408;-73
2022/11/07 11:57:24;;;;;;;11.48;4.18;;;13.40;99.90;;;;;;5109892;28;20039;-73
2022/11/07 11:59:55;;;;;;;12.40;3.42;;;13.40;99.90;;;;;;5106714;28;20028;-74
2022/11/07 12:02:39;;;;;;;11.55;3.47;;;13.40;99.90;;;;;;5107720;28;20160;-74
2022/11/07 12:05:31;;;;;;;11.27;3.67;;;13.60;99.90;;;;;;5107671;28;20031;-74
2022/11/07 12:08:41;;;;;;;9.63;4.00;;;13.60;99.90;;;;;;5090169;28;20036;-74
2022/11/07 12:11:31;;;;;;;10.63;3.63;;;13.60;99.90;;;;;;5074472;28;20511;-73
2022/11/07 12:14:20;;;;;;;10.05;3.33;;;13.60;99.90;;;;;;5090071;28;20031;-73
2022/11/07 12:17:25;;;;;;;8.60;2.80;;;13.50;99.90;;;;;;5089915;28;20114;-74
2022/11/07 12:20:04;;;;;;;12.30;3.70;;;13.50;99.90;;;;;;5016499;28;20115;-72
2022/11/07 12:22:58;;;;;;;9.68;3.58;;;13.40;99.90;;;;;;5081342;28;20067;-74
2022/11/07 12:25:45;;;;;;;12.82;3.45;;;13.40;99.90;;;;;;5110040;28;20030;-74
2022/11/07 12:28:29;;;;;;;15.23;4.05;;;13.40;99.90;;;;;;5089583;28;20032;-74
2022/11/07 12:31:13;;;;;;;7.20;3.50;;;13.30;99.90;;;;;;5105753;28;20087;-73
2022/11/07 12:33:59;;;;;;;10.63;3.60;;;13.40;99.90;;;;;;5115041;28;20031;-73
2022/11/07 12:36:42;;;;;;;11.65;3.53;;;13.40;99.90;;;;;;5105209;28;20475;-73
2022/11/07 12:39:50;;;;;;;10.77;3.63;;;13.40;99.90;;;;;;5107324;28;20479;-72
2022/11/07 12:42:50;;;;;;;10.98;4.07;;;13.40;99.90;;;;;;5107366;28;20040;-73
2022/11/07 12:45:47;;;;;;;12.57;3.50;;;13.40;99.90;;;;;;5092047;28;20028;-73
2022/11/07 12:48:24;;;;;;;10.48;3.42;;;13.30;99.90;;;;;;5088535;28;20100;-73
2022/11/07 12:51:14;;;;;;;13.90;4.45;;;13.40;99.90;;;;;;5088830;28;20109;-72
2022/11/07 12:53:47;;;;;;;12.90;3.47;;;13.30;99.90;;;;;;5106881;28;20027;-73
2022/11/07 12:56:20;;;;;;;11.30;3.83;;;13.30;99.90;;;;;;5087896;28;20168;-72
2022/11/07 12:58:47;;;;;;;11.35;3.47;;;13.30;99.90;;;;;;5109014;28;20360;-73
2022/11/07 13:01:18;;;;;;;12.18;3.53;;;13.30;99.90;;;;;;5089039;28;20030;-74
2022/11/07 13:03:52;;;;;;;12.90;3.60;;;13.40;99.90;;;;;;5091310;28;20073;-72
2022/11/07 13:06:44;;;;;;;13.02;3.67;;;13.40;99.90;;;;;;5080597;28;21249;-72
2022/11/07 13:09:32;;;;;;;10.52;3.33;;;13.40;99.90;;;;;;5078276;28;20043;-72
2022/11/07 13:12:23;;;;;;;9.48;3.22;;;13.40;99.90;;;;;;5106496;28;20042;-73